createdAt,value
2023-01-29T00:00:48.521Z,6.85
2023-01-29T00:04:40.297Z,3.33
2023-01-29T00:08:12.338Z,4.60
2023-01-29T00:11:44.142Z,5.65
2023-01-29T00:15:16.458Z,3.37
2023-01-29T00:18:48.384Z,5.43
2023-01-29T00:22:20.388Z,7.93
2023-01-29T00:25:52.143Z,7.88
2023-01-29T00:29:24.484Z,5.37
2023-01-29T00:32:57.194Z,3.03
2023-01-29T00:36:29.449Z,7.03
2023-01-29T00:40:01.193Z,1.80
2023-01-29T00:43:51.749Z,5.95
2023-01-29T00:47:35.576Z,4.70
2023-01-29T00:51:07.602Z,5.30
2023-01-29T00:54:39.568Z,5.60
2023-01-29T00:58:11.337Z,5.85
2023-01-29T01:02:02.002Z,2.97
2023-01-29T01:05:34.473Z,4.83
2023-01-29T01:09:25.793Z,7.05
2023-01-29T01:13:01.270Z,8.80
2023-01-29T01:16:33.625Z,7.43
2023-01-29T01:20:05.920Z,3.65
2023-01-29T01:23:38.171Z,2.33
2023-01-29T01:27:09.943Z,4.47
2023-01-29T01:30:42.295Z,4.75
2023-01-29T01:34:15.073Z,3.47
2023-01-29T01:37:47.560Z,3.55
2023-01-29T01:41:21.847Z,3.40
2023-01-29T01:44:59.305Z,2.45
2023-01-29T01:48:31.195Z,5.72
2023-01-29T01:52:03.403Z,4.83
2023-01-29T01:55:49.310Z,4.68
2023-01-29T01:59:25.511Z,2.20
2023-01-29T02:03:16.019Z,5.53
2023-01-29T02:07:07.020Z,8.93
2023-01-29T02:10:46.910Z,6.20
2023-01-29T02:14:19.341Z,5.15
2023-01-29T02:17:51.202Z,8.30
2023-01-29T02:21:44.593Z,7.05
2023-01-29T02:25:22.225Z,4.85
2023-01-29T02:29:33.882Z,5.50
2023-01-29T02:33:24.531Z,5.68
2023-01-29T02:37:11.944Z,2.40
2023-01-29T02:40:49.315Z,3.37
2023-01-29T02:44:28.575Z,7.55
2023-01-29T02:48:02.397Z,8.02
2023-01-29T02:51:51.722Z,6.00
2023-01-29T02:55:36.205Z,0.93
2023-01-29T02:59:16.806Z,1.52
2023-01-29T03:03:14.453Z,4.88
2023-01-29T03:06:54.730Z,3.30
2023-01-29T03:10:48.862Z,11.38
2023-01-29T03:14:55.779Z,4.45
2023-01-29T03:18:33.004Z,5.30
2023-01-29T03:22:08.881Z,5.07
2023-01-29T03:26:01.951Z,7.20
2023-01-29T03:29:54.899Z,6.90
2023-01-29T03:33:30.243Z,1.97
2023-01-29T03:37:07.710Z,6.00
2023-01-29T03:40:56.843Z,4.63
2023-01-29T03:44:57.115Z,3.60
2023-01-29T03:48:40.799Z,6.97
2023-01-29T03:52:23.685Z,4.57
2023-01-29T03:56:02.692Z,4.57
2023-01-29T03:59:41.293Z,4.15
2023-01-29T04:03:20.912Z,3.25
2023-01-29T04:06:57.724Z,7.18
2023-01-29T04:10:29.961Z,3.27
2023-01-29T04:14:02.397Z,4.40
2023-01-29T04:17:39.761Z,2.83
2023-01-29T04:21:12.976Z,7.20
2023-01-29T04:24:45.456Z,4.47
2023-01-29T04:28:26.077Z,4.15
2023-01-29T04:32:11.094Z,4.67
2023-01-29T04:36:02.077Z,4.82
2023-01-29T04:39:51.969Z,4.05
2023-01-29T04:43:37.193Z,5.15
2023-01-29T04:47:35.935Z,4.63
2023-01-29T04:51:19.131Z,3.35
2023-01-29T04:55:24.525Z,7.57
2023-01-29T04:59:07.404Z,3.97
2023-01-29T05:02:42.247Z,3.63
2023-01-29T05:06:15.950Z,6.78
2023-01-29T05:09:49.941Z,8.77
2023-01-29T05:13:23.632Z,8.32
2023-01-29T05:16:57.842Z,3.55
2023-01-29T05:20:36.572Z,3.92
2023-01-29T05:24:23.591Z,5.57
2023-01-29T05:28:16.764Z,7.40
2023-01-29T05:31:49.098Z,6.22
2023-01-29T05:35:21.049Z,2.67
2023-01-29T05:38:54.089Z,6.75
2023-01-29T05:42:25.860Z,6.63
2023-01-29T05:46:01.645Z,7.93
2023-01-29T05:49:33.508Z,7.07
2023-01-29T05:53:06.399Z,8.63
2023-01-29T05:56:39.278Z,6.78
2023-01-29T06:00:13.154Z,15.50
2023-01-29T06:03:45.264Z,10.48
2023-01-29T06:07:17.908Z,7.15
2023-01-29T06:10:49.613Z,13.43
2023-01-29T06:14:21.783Z,6.90
2023-01-29T06:17:54.762Z,5.40
2023-01-29T06:21:26.794Z,7.60
2023-01-29T06:24:58.820Z,5.20
2023-01-29T06:28:30.569Z,7.85
2023-01-29T06:32:03.129Z,10.48
2023-01-29T06:35:35.271Z,9.20
2023-01-29T06:39:07.019Z,8.07
2023-01-29T06:42:39.208Z,11.63
2023-01-29T06:46:11.625Z,11.43
2023-01-29T06:49:44.890Z,16.13
2023-01-29T06:53:18.996Z,7.15
2023-01-29T06:56:51.784Z,9.57
2023-01-29T07:00:23.952Z,7.82
2023-01-29T07:03:55.783Z,10.30
2023-01-29T07:07:27.833Z,7.78
2023-01-29T07:11:01.094Z,11.30
2023-01-29T07:14:33.144Z,10.02
2023-01-29T07:18:12.164Z,9.32
2023-01-29T07:21:43.934Z,10.90
2023-01-29T07:25:16.144Z,13.95
2023-01-29T07:28:48.026Z,9.23
2023-01-29T07:32:21.760Z,13.07
2023-01-29T07:35:55.370Z,11.25
2023-01-29T07:39:27.526Z,12.05
2023-01-29T07:43:04.330Z,6.70
2023-01-29T07:46:36.120Z,6.87
2023-01-29T07:50:08.753Z,11.80
2023-01-29T07:53:40.605Z,9.18
2023-01-29T07:57:13.008Z,10.20
2023-01-29T08:00:46.082Z,13.27
2023-01-29T08:04:18.191Z,13.60
2023-01-29T08:08:05.694Z,15.10
2023-01-29T08:11:38.922Z,7.85
2023-01-29T08:15:11.496Z,15.65
2023-01-29T08:18:46.269Z,15.43
2023-01-29T08:22:18.667Z,9.40
2023-01-29T08:25:50.564Z,9.50
2023-01-29T08:29:22.910Z,13.07
2023-01-29T08:32:54.826Z,13.73
2023-01-29T08:36:27.587Z,9.95
2023-01-29T08:39:59.398Z,18.17
2023-01-29T08:43:31.999Z,8.17
2023-01-29T08:47:04.418Z,9.15
2023-01-29T08:50:37.696Z,7.20
2023-01-29T08:54:09.423Z,12.18
2023-01-29T08:57:41.621Z,10.20
2023-01-29T09:01:17.462Z,12.80
2023-01-29T09:04:49.826Z,8.25
2023-01-29T09:08:22.304Z,13.27
2023-01-29T09:11:55.087Z,13.75
2023-01-29T09:15:27.153Z,9.50
2023-01-29T09:18:59.459Z,9.10
2023-01-29T09:22:32.155Z,12.25
2023-01-29T09:26:04.147Z,9.02
2023-01-29T09:29:36.310Z,11.70
2023-01-29T09:33:08.351Z,7.37
2023-01-29T09:36:40.432Z,12.57
2023-01-29T09:40:25.754Z,11.55
2023-01-29T09:44:04.916Z,13.07
2023-01-29T09:47:37.563Z,10.82
2023-01-29T09:51:32.196Z,8.40
2023-01-29T09:55:18.999Z,9.63
2023-01-29T09:58:52.096Z,9.10
2023-01-29T10:02:51.284Z,9.07
2023-01-29T10:06:35.267Z,9.52
2023-01-29T10:10:29.575Z,10.87
2023-01-29T10:14:13.052Z,13.52
2023-01-29T10:17:50.605Z,7.20
2023-01-29T10:22:09.584Z,14.83
2023-01-29T10:25:42.807Z,14.70
2023-01-29T10:29:20.346Z,10.85
2023-01-29T10:32:54.628Z,12.47
2023-01-29T10:36:33.186Z,7.70
2023-01-29T10:40:23.984Z,17.67
2023-01-29T10:44:22.481Z,12.45
2023-01-29T10:48:40.735Z,10.83
2023-01-29T10:52:40.537Z,12.30
2023-01-29T10:56:24.022Z,11.65
2023-01-29T11:00:12.615Z,10.67
2023-01-29T11:03:44.403Z,9.82
2023-01-29T11:07:19.567Z,16.40
2023-01-29T11:11:14.021Z,18.23
2023-01-29T11:14:53.396Z,11.45
2023-01-29T11:18:25.145Z,13.07
2023-01-29T11:22:00.138Z,11.13
2023-01-29T11:25:35.455Z,11.10
2023-01-29T11:29:30.464Z,18.35
2023-01-29T11:33:05.355Z,13.45
2023-01-29T11:36:39.680Z,11.37
2023-01-29T11:40:20.685Z,10.27
2023-01-29T11:43:52.907Z,14.30
2023-01-29T11:47:29.905Z,16.20
2023-01-29T11:51:02.864Z,17.60
2023-01-29T11:54:41.887Z,16.83
2023-01-29T11:58:19.229Z,17.38
2023-01-29T12:01:51.999Z,12.10
2023-01-29T12:05:27.243Z,11.73
2023-01-29T12:09:01.476Z,14.10
2023-01-29T12:12:41.670Z,12.57
2023-01-29T12:16:23.821Z,12.35
2023-01-29T12:20:03.878Z,34.67
2023-01-29T12:23:55.129Z,19.60
2023-01-29T12:27:48.411Z,14.00
2023-01-29T12:31:23.399Z,12.88
2023-01-29T12:35:06.245Z,12.07
2023-01-29T12:38:38.476Z,9.83
2023-01-29T12:42:19.383Z,14.82
2023-01-29T12:45:55.318Z,15.60
2023-01-29T12:49:33.143Z,15.77
2023-01-29T12:53:28.201Z,11.73
2023-01-29T12:57:04.784Z,15.15
2023-01-29T13:00:43.387Z,8.63
2023-01-29T13:04:26.444Z,14.82
2023-01-29T13:08:05.224Z,14.55
2023-01-29T13:11:42.092Z,11.90
2023-01-29T13:15:38.668Z,14.17
2023-01-29T13:19:32.009Z,14.38
2023-01-29T13:23:17.776Z,11.63
2023-01-29T13:26:50.246Z,11.17
2023-01-29T13:30:28.441Z,16.08
2023-01-29T13:34:14.195Z,7.72
2023-01-29T13:37:55.401Z,10.70
2023-01-29T13:41:43.679Z,12.95
2023-01-29T13:45:25.348Z,14.60
2023-01-29T13:49:00.947Z,11.48
2023-01-29T13:52:44.313Z,12.30
2023-01-29T13:56:39.693Z,17.80
2023-01-29T14:00:21.009Z,9.25
2023-01-29T14:04:04.814Z,17.57
2023-01-29T14:07:46.944Z,12.85
2023-01-29T14:11:21.896Z,18.38
2023-01-29T14:14:57.532Z,9.53
2023-01-29T14:18:30.988Z,15.77
2023-01-29T14:22:04.809Z,10.30
2023-01-29T14:25:41.146Z,14.05
2023-01-29T14:29:16.481Z,13.77
2023-01-29T14:32:51.673Z,14.48
2023-01-29T14:36:27.122Z,16.70
2023-01-29T14:40:11.965Z,11.97
2023-01-29T14:43:44.011Z,9.75
2023-01-29T14:47:43.269Z,15.27
2023-01-29T14:51:17.700Z,20.13
2023-01-29T14:54:51.322Z,13.77
2023-01-29T14:58:26.787Z,10.38
2023-01-29T15:02:05.336Z,15.02
2023-01-29T15:05:38.993Z,17.20
2023-01-29T15:09:11.091Z,11.50
2023-01-29T15:12:52.758Z,12.23
2023-01-29T15:16:31.143Z,5.87
2023-01-29T15:20:33.565Z,20.45
2023-01-29T15:24:07.214Z,12.75
2023-01-29T15:27:42.907Z,17.97
2023-01-29T15:31:18.431Z,24.95
2023-01-29T15:34:51.410Z,20.25
2023-01-29T15:38:26.867Z,14.48
2023-01-29T15:42:12.558Z,20.70
2023-01-29T15:45:45.886Z,17.58
2023-01-29T15:49:25.746Z,17.38
2023-01-29T15:53:00.395Z,12.43
2023-01-29T15:56:40.514Z,14.35
2023-01-29T16:00:22.995Z,14.02
2023-01-29T16:03:56.234Z,18.30
2023-01-29T16:07:30.514Z,9.00
2023-01-29T16:11:05.309Z,12.48
2023-01-29T16:14:37.978Z,8.88
2023-01-29T16:18:24.024Z,11.40
2023-01-29T16:22:00.261Z,19.70
2023-01-29T16:25:34.947Z,11.50
2023-01-29T16:29:15.563Z,11.87
2023-01-29T16:32:48.359Z,12.15
2023-01-29T16:36:24.579Z,9.40
2023-01-29T16:39:57.360Z,9.33
2023-01-29T16:43:37.524Z,10.52
2023-01-29T16:47:20.633Z,11.10
2023-01-29T16:51:04.468Z,14.68
2023-01-29T16:54:42.881Z,17.17
2023-01-29T16:58:22.042Z,23.33
2023-01-29T17:01:55.725Z,18.30
2023-01-29T17:05:31.320Z,18.13
2023-01-29T17:09:05.133Z,18.90
2023-01-29T17:12:39.759Z,17.55
2023-01-29T17:16:23.477Z,17.87
2023-01-29T17:19:55.595Z,18.27
2023-01-29T17:23:27.399Z,15.50
2023-01-29T17:27:01.527Z,24.42
2023-01-29T17:30:37.238Z,18.80
2023-01-29T17:34:16.806Z,23.10
2023-01-29T17:37:49.001Z,21.08
2023-01-29T17:41:27.793Z,11.27
2023-01-29T17:44:59.831Z,16.85
2023-01-29T17:48:31.680Z,23.67
2023-01-29T17:52:04.436Z,12.30
2023-01-29T17:55:36.262Z,19.55
2023-01-29T17:59:16.385Z,17.38
2023-01-29T18:02:48.779Z,16.02
2023-01-29T18:06:28.120Z,13.20
2023-01-29T18:10:01.916Z,19.38
2023-01-29T18:13:36.550Z,19.52
2023-01-29T18:17:11.899Z,14.97
2023-01-29T18:20:53.221Z,19.02
2023-01-29T18:24:31.883Z,17.08
2023-01-29T18:28:13.926Z,9.77
2023-01-29T18:31:54.404Z,12.75
2023-01-29T18:35:34.763Z,14.43
2023-01-29T18:39:15.667Z,13.35
2023-01-29T18:42:50.676Z,18.67
2023-01-29T18:46:29.191Z,9.80
2023-01-29T18:50:13.011Z,9.48
2023-01-29T18:53:53.229Z,21.13
2023-01-29T18:58:27.116Z,12.27
2023-01-29T19:01:29.963Z,15.05
2023-01-29T19:05:06.023Z,19.77
2023-01-29T19:08:46.355Z,15.07
2023-01-29T19:12:32.722Z,18.33
2023-01-29T19:16:28.020Z,15.60
2023-01-29T19:20:05.276Z,19.73
2023-01-29T19:23:38.065Z,15.65
2023-01-29T19:27:11.757Z,16.35
2023-01-29T19:30:45.139Z,14.07
2023-01-29T19:34:17.798Z,16.73
2023-01-29T19:37:56.003Z,16.20
2023-01-29T19:41:28.965Z,13.87
2023-01-29T19:45:49.901Z,14.65
2023-01-29T19:49:08.001Z,16.85
2023-01-29T19:52:51.277Z,11.50
2023-01-29T19:56:24.114Z,10.93
2023-01-29T19:59:57.699Z,12.57
2023-01-29T20:03:30.286Z,15.45
2023-01-29T20:07:02.367Z,14.57
2023-01-29T20:10:34.504Z,14.52
2023-01-29T20:14:06.608Z,14.13
2023-01-29T20:17:39.628Z,15.40
2023-01-29T20:21:13.999Z,12.07
2023-01-29T20:24:46.735Z,16.17
2023-01-29T20:28:19.522Z,10.10
2023-01-29T20:31:51.386Z,11.90
2023-01-29T20:35:24.159Z,17.77
2023-01-29T20:38:56.209Z,19.08
2023-01-29T20:42:28.581Z,9.33
2023-01-29T20:46:01.336Z,5.95
2023-01-29T20:49:34.143Z,16.63
2023-01-29T20:53:08.221Z,16.20
2023-01-29T20:56:45.317Z,10.43
2023-01-29T21:00:20.238Z,12.77
2023-01-29T21:03:52.402Z,18.23
2023-01-29T21:07:24.979Z,16.63
2023-01-29T21:10:57.984Z,11.70
2023-01-29T21:14:30.223Z,13.52
2023-01-29T21:18:04.525Z,10.33
2023-01-29T21:21:36.456Z,21.35
2023-01-29T21:25:08.842Z,12.20
2023-01-29T21:28:40.733Z,17.70
2023-01-29T21:32:13.776Z,11.73
2023-01-29T21:35:45.627Z,17.60
2023-01-29T21:39:17.912Z,13.35
2023-01-29T21:43:07.958Z,18.40
2023-01-29T21:46:40.085Z,21.35
2023-01-29T21:50:12.592Z,20.83
2023-01-29T21:53:44.502Z,16.60
2023-01-29T21:57:17.431Z,13.05
2023-01-29T22:00:49.711Z,12.43
2023-01-29T22:04:26.073Z,12.17
2023-01-29T22:07:58.282Z,10.60
2023-01-29T22:11:30.498Z,10.90
2023-01-29T22:15:02.660Z,15.18
2023-01-29T22:18:34.826Z,9.33
2023-01-29T22:22:07.997Z,12.55
2023-01-29T22:25:39.905Z,12.38
2023-01-29T22:29:13.075Z,12.10
2023-01-29T22:32:45.096Z,17.02
2023-01-29T22:36:17.345Z,11.63
2023-01-29T22:39:49.333Z,7.57
2023-01-29T22:43:21.728Z,16.45
2023-01-29T22:46:54.373Z,11.77
2023-01-29T22:50:26.573Z,19.63
2023-01-29T22:53:58.539Z,14.67
2023-01-29T22:57:30.708Z,10.75
2023-01-29T23:01:02.499Z,15.65
2023-01-29T23:04:35.023Z,11.30
2023-01-29T23:08:06.843Z,14.57
2023-01-29T23:11:38.817Z,13.10
2023-01-29T23:15:10.691Z,18.97
2023-01-29T23:18:43.912Z,16.92
2023-01-29T23:22:15.651Z,10.48
2023-01-29T23:26:06.002Z,17.02
2023-01-29T23:29:37.808Z,17.53
2023-01-29T23:33:12.139Z,9.77
2023-01-29T23:36:44.287Z,8.52
2023-01-29T23:40:16.839Z,12.67
2023-01-29T23:43:49.021Z,10.75
2023-01-29T23:47:21.001Z,11.40
2023-01-29T23:50:53.142Z,10.60
2023-01-29T23:54:24.960Z,10.35
2023-01-29T23:57:56.934Z,13.98
